sensor_id;sensor_type;location;lat;lon;timestamp;P1;durP1;ratioP1;P2;durP2;ratioP2
24030;SDS011;12240;51.142;22.486;2023-02-02T00:01:52;22.15;;;7.82;;
24030;SDS011;12240;51.142;22.486;2023-02-02T00:04:24;20.30;;;7.47;;
24030;SDS011;12240;51.142;22.486;2023-02-02T00:06:58;22.58;;;7.68;;
24030;SDS011;12240;51.142;22.486;2023-02-02T00:09:29;15.52;;;6.45;;
24030;SDS011;12240;51.142;22.486;2023-02-02T00:11:59;18.15;;;6.50;;
24030;SDS011;12240;51.142;22.486;2023-02-02T00:14:31;23.65;;;6.78;;
24030;SDS011;12240;51.142;22.486;2023-02-02T00:17:00;17.58;;;6.53;;
24030;SDS011;12240;51.142;22.486;2023-02-02T00:19:28;12.65;;;5.60;;
24030;SDS011;12240;51.142;22.486;2023-02-02T00:21:58;14.48;;;5.22;;
24030;SDS011;12240;51.142;22.486;2023-02-02T00:24:26;19.38;;;5.18;;
24030;SDS011;12240;51.142;22.486;2023-02-02T00:26:55;22.95;;;6.40;;
24030;SDS011;12240;51.142;22.486;2023-02-02T00:29:27;18.38;;;5.97;;
24030;SDS011;12240;51.142;22.486;2023-02-02T00:31:57;12.82;;;5.30;;
24030;SDS011;12240;51.142;22.486;2023-02-02T00:34:25;19.30;;;7.07;;
24030;SDS011;12240;51.142;22.486;2023-02-02T00:36:53;21.13;;;5.78;;
24030;SDS011;12240;51.142;22.486;2023-02-02T00:39:22;15.32;;;5.80;;
24030;SDS011;12240;51.142;22.486;2023-02-02T00:41:53;18.58;;;6.43;;
24030;SDS011;12240;51.142;22.486;2023-02-02T00:44:22;18.00;;;6.60;;
24030;SDS011;12240;51.142;22.486;2023-02-02T00:47:09;13.23;;;5.57;;
24030;SDS011;12240;51.142;22.486;2023-02-02T00:49:38;12.65;;;5.97;;
24030;SDS011;12240;51.142;22.486;2023-02-02T00:52:07;16.33;;;6.30;;
24030;SDS011;12240;51.142;22.486;2023-02-02T00:54:35;19.88;;;6.95;;
24030;SDS011;12240;51.142;22.486;2023-02-02T00:57:03;24.33;;;7.00;;
24030;SDS011;12240;51.142;22.486;2023-02-02T00:59:32;18.63;;;7.20;;
24030;SDS011;12240;51.142;22.486;2023-02-02T01:02:00;15.90;;;6.10;;
24030;SDS011;12240;51.142;22.486;2023-02-02T01:04:29;15.23;;;6.70;;
24030;SDS011;12240;51.142;22.486;2023-02-02T01:06:57;19.17;;;6.95;;
24030;SDS011;12240;51.142;22.486;2023-02-02T01:09:25;18.98;;;7.10;;
24030;SDS011;12240;51.142;22.486;2023-02-02T01:11:53;21.45;;;7.72;;
24030;SDS011;12240;51.142;22.486;2023-02-02T01:14:24;20.05;;;7.07;;
24030;SDS011;12240;51.142;22.486;2023-02-02T01:16:55;14.45;;;6.15;;
24030;SDS011;12240;51.142;22.486;2023-02-02T01:19:25;21.20;;;6.35;;
24030;SDS011;12240;51.142;22.486;2023-02-02T01:21:53;22.30;;;8.48;;
24030;SDS011;12240;51.142;22.486;2023-02-02T01:24:21;18.75;;;6.55;;
24030;SDS011;12240;51.142;22.486;2023-02-02T01:26:50;21.60;;;7.72;;
24030;SDS011;12240;51.142;22.486;2023-02-02T01:29:18;19.85;;;6.68;;
24030;SDS011;12240;51.142;22.486;2023-02-02T01:31:47;19.55;;;7.20;;
24030;SDS011;12240;51.142;22.486;2023-02-02T01:34:16;17.75;;;6.65;;
24030;SDS011;12240;51.142;22.486;2023-02-02T01:36:45;19.42;;;7.78;;
24030;SDS011;12240;51.142;22.486;2023-02-02T01:39:13;17.80;;;6.72;;
24030;SDS011;12240;51.142;22.486;2023-02-02T01:41:42;20.48;;;7.82;;
24030;SDS011;12240;51.142;22.486;2023-02-02T01:47:35;18.75;;;7.80;;
24030;SDS011;12240;51.142;22.486;2023-02-02T01:50:10;19.52;;;6.97;;
24030;SDS011;12240;51.142;22.486;2023-02-02T01:52:42;28.35;;;9.30;;
24030;SDS011;12240;51.142;22.486;2023-02-02T01:55:16;21.50;;;8.07;;
24030;SDS011;12240;51.142;22.486;2023-02-02T02:00:50;19.25;;;8.13;;
24030;SDS011;12240;51.142;22.486;2023-02-02T02:03:21;23.67;;;8.68;;
24030;SDS011;12240;51.142;22.486;2023-02-02T02:05:57;23.45;;;9.60;;
24030;SDS011;12240;51.142;22.486;2023-02-02T02:08:29;16.15;;;7.40;;
24030;SDS011;12240;51.142;22.486;2023-02-02T02:11:06;22.42;;;8.23;;
24030;SDS011;12240;51.142;22.486;2023-02-02T02:13:36;20.50;;;7.95;;
24030;SDS011;12240;51.142;22.486;2023-02-02T02:19:34;21.25;;;9.43;;
24030;SDS011;12240;51.142;22.486;2023-02-02T02:32:39;22.52;;;8.43;;
24030;SDS011;12240;51.142;22.486;2023-02-02T02:35:22;20.75;;;7.45;;
24030;SDS011;12240;51.142;22.486;2023-02-02T02:40:59;22.20;;;9.10;;
24030;SDS011;12240;51.142;22.486;2023-02-02T02:43:40;24.35;;;10.10;;
24030;SDS011;12240;51.142;22.486;2023-02-02T02:46:20;22.02;;;9.00;;
24030;SDS011;12240;51.142;22.486;2023-02-02T02:48:49;28.67;;;10.93;;
24030;SDS011;12240;51.142;22.486;2023-02-02T03:02:29;22.33;;;9.98;;
24030;SDS011;12240;51.142;22.486;2023-02-02T03:08:34;17.58;;;7.18;;
24030;SDS011;12240;51.142;22.486;2023-02-02T03:11:10;18.42;;;7.93;;
24030;SDS011;12240;51.142;22.486;2023-02-02T03:13:41;24.17;;;8.35;;
24030;SDS011;12240;51.142;22.486;2023-02-02T03:16:10;16.83;;;6.90;;
24030;SDS011;12240;51.142;22.486;2023-02-02T03:18:41;20.92;;;8.10;;
24030;SDS011;12240;51.142;22.486;2023-02-02T03:21:10;19.83;;;7.70;;
24030;SDS011;12240;51.142;22.486;2023-02-02T03:23:39;19.02;;;7.57;;
24030;SDS011;12240;51.142;22.486;2023-02-02T03:26:07;18.25;;;7.30;;
24030;SDS011;12240;51.142;22.486;2023-02-02T03:28:36;19.05;;;8.20;;
24030;SDS011;12240;51.142;22.486;2023-02-02T03:31:05;17.85;;;7.63;;
24030;SDS011;12240;51.142;22.486;2023-02-02T03:33:34;16.67;;;7.38;;
24030;SDS011;12240;51.142;22.486;2023-02-02T03:36:04;16.83;;;7.57;;
24030;SDS011;12240;51.142;22.486;2023-02-02T03:38:33;17.27;;;7.50;;
24030;SDS011;12240;51.142;22.486;2023-02-02T03:41:01;21.33;;;7.45;;
24030;SDS011;12240;51.142;22.486;2023-02-02T03:43:31;14.95;;;7.30;;
24030;SDS011;12240;51.142;22.486;2023-02-02T03:46:00;21.27;;;8.27;;
24030;SDS011;12240;51.142;22.486;2023-02-02T03:48:33;16.35;;;8.10;;
24030;SDS011;12240;51.142;22.486;2023-02-02T03:51:04;17.77;;;7.38;;
24030;SDS011;12240;51.142;22.486;2023-02-02T03:53:40;18.13;;;8.90;;
24030;SDS011;12240;51.142;22.486;2023-02-02T03:56:14;16.90;;;7.80;;
24030;SDS011;12240;51.142;22.486;2023-02-02T03:58:42;19.67;;;8.30;;
24030;SDS011;12240;51.142;22.486;2023-02-02T04:01:12;15.02;;;8.07;;
24030;SDS011;12240;51.142;22.486;2023-02-02T04:03:41;18.10;;;7.85;;
24030;SDS011;12240;51.142;22.486;2023-02-02T04:06:10;16.60;;;6.72;;
24030;SDS011;12240;51.142;22.486;2023-02-02T04:08:38;14.85;;;7.32;;
24030;SDS011;12240;51.142;22.486;2023-02-02T04:11:08;13.82;;;6.63;;
24030;SDS011;12240;51.142;22.486;2023-02-02T04:13:37;14.27;;;6.73;;
24030;SDS011;12240;51.142;22.486;2023-02-02T04:16:06;14.77;;;7.13;;
24030;SDS011;12240;51.142;22.486;2023-02-02T04:18:34;15.73;;;7.25;;
24030;SDS011;12240;51.142;22.486;2023-02-02T04:21:05;15.18;;;6.97;;
24030;SDS011;12240;51.142;22.486;2023-02-02T04:23:35;19.98;;;7.45;;
24030;SDS011;12240;51.142;22.486;2023-02-02T04:26:03;15.10;;;6.82;;
24030;SDS011;12240;51.142;22.486;2023-02-02T04:28:32;15.35;;;6.60;;
24030;SDS011;12240;51.142;22.486;2023-02-02T04:31:00;15.73;;;6.55;;
24030;SDS011;12240;51.142;22.486;2023-02-02T04:33:28;20.63;;;7.07;;
24030;SDS011;12240;51.142;22.486;2023-02-02T04:35:56;14.48;;;6.13;;
24030;SDS011;12240;51.142;22.486;2023-02-02T04:38:25;14.32;;;6.35;;
24030;SDS011;12240;51.142;22.486;2023-02-02T04:40:53;17.67;;;7.18;;
24030;SDS011;12240;51.142;22.486;2023-02-02T04:43:21;16.75;;;6.50;;
24030;SDS011;12240;51.142;22.486;2023-02-02T04:45:55;19.10;;;7.18;;
24030;SDS011;12240;51.142;22.486;2023-02-02T04:48:23;13.95;;;6.45;;
24030;SDS011;12240;51.142;22.486;2023-02-02T04:51:02;19.35;;;7.07;;
24030;SDS011;12240;51.142;22.486;2023-02-02T04:53:33;14.65;;;5.50;;
24030;SDS011;12240;51.142;22.486;2023-02-02T04:56:05;12.65;;;5.20;;
24030;SDS011;12240;51.142;22.486;2023-02-02T04:58:33;11.90;;;4.93;;
24030;SDS011;12240;51.142;22.486;2023-02-02T05:01:13;16.08;;;5.28;;
24030;SDS011;12240;51.142;22.486;2023-02-02T05:03:44;15.07;;;5.75;;
24030;SDS011;12240;51.142;22.486;2023-02-02T05:06:14;12.48;;;4.70;;
24030;SDS011;12240;51.142;22.486;2023-02-02T05:08:44;18.63;;;6.10;;
24030;SDS011;12240;51.142;22.486;2023-02-02T05:11:15;11.20;;;5.15;;
24030;SDS011;12240;51.142;22.486;2023-02-02T05:13:46;16.85;;;5.65;;
24030;SDS011;12240;51.142;22.486;2023-02-02T05:16:16;12.85;;;4.43;;
24030;SDS011;12240;51.142;22.486;2023-02-02T05:18:53;18.65;;;5.43;;
24030;SDS011;12240;51.142;22.486;2023-02-02T05:21:25;11.85;;;4.57;;
24030;SDS011;12240;51.142;22.486;2023-02-02T05:23:54;17.38;;;6.07;;
24030;SDS011;12240;51.142;22.486;2023-02-02T05:26:24;14.93;;;5.07;;
24030;SDS011;12240;51.142;22.486;2023-02-02T05:28:53;12.73;;;5.33;;
24030;SDS011;12240;51.142;22.486;2023-02-02T05:31:22;16.30;;;4.70;;
24030;SDS011;12240;51.142;22.486;2023-02-02T05:33:50;16.88;;;6.43;;
24030;SDS011;12240;51.142;22.486;2023-02-02T05:36:18;20.95;;;4.63;;
24030;SDS011;12240;51.142;22.486;2023-02-02T05:38:46;15.80;;;5.28;;
24030;SDS011;12240;51.142;22.486;2023-02-02T05:41:14;17.15;;;5.13;;
24030;SDS011;12240;51.142;22.486;2023-02-02T05:43:42;24.58;;;6.53;;
24030;SDS011;12240;51.142;22.486;2023-02-02T05:46:10;18.35;;;5.60;;
24030;SDS011;12240;51.142;22.486;2023-02-02T05:48:38;20.13;;;6.53;;
24030;SDS011;12240;51.142;22.486;2023-02-02T05:51:10;16.10;;;5.40;;
24030;SDS011;12240;51.142;22.486;2023-02-02T05:53:46;20.83;;;6.57;;
24030;SDS011;12240;51.142;22.486;2023-02-02T05:56:14;24.95;;;7.03;;
24030;SDS011;12240;51.142;22.486;2023-02-02T05:58:42;21.40;;;7.18;;
24030;SDS011;12240;51.142;22.486;2023-02-02T06:01:13;20.33;;;7.40;;
24030;SDS011;12240;51.142;22.486;2023-02-02T06:03:42;23.58;;;8.60;;
24030;SDS011;12240;51.142;22.486;2023-02-02T06:06:11;23.95;;;8.15;;
24030;SDS011;12240;51.142;22.486;2023-02-02T06:08:40;24.85;;;8.23;;
24030;SDS011;12240;51.142;22.486;2023-02-02T06:11:12;21.95;;;6.85;;
24030;SDS011;12240;51.142;22.486;2023-02-02T06:13:42;20.73;;;7.22;;
24030;SDS011;12240;51.142;22.486;2023-02-02T06:16:12;16.27;;;6.05;;
24030;SDS011;12240;51.142;22.486;2023-02-02T06:18:40;19.33;;;7.40;;
24030;SDS011;12240;51.142;22.486;2023-02-02T06:21:08;15.93;;;5.32;;
24030;SDS011;12240;51.142;22.486;2023-02-02T06:23:37;15.70;;;5.03;;
24030;SDS011;12240;51.142;22.486;2023-02-02T06:26:09;16.88;;;5.90;;
24030;SDS011;12240;51.142;22.486;2023-02-02T06:28:47;19.30;;;6.80;;
24030;SDS011;12240;51.142;22.486;2023-02-02T06:31:17;17.05;;;5.88;;
24030;SDS011;12240;51.142;22.486;2023-02-02T06:33:53;17.70;;;6.10;;
24030;SDS011;12240;51.142;22.486;2023-02-02T06:36:24;29.20;;;5.90;;
24030;SDS011;12240;51.142;22.486;2023-02-02T06:38:55;19.92;;;6.82;;
24030;SDS011;12240;51.142;22.486;2023-02-02T06:41:23;12.05;;;5.10;;
24030;SDS011;12240;51.142;22.486;2023-02-02T06:43:52;20.88;;;7.38;;
24030;SDS011;12240;51.142;22.486;2023-02-02T06:46:20;21.23;;;6.93;;
24030;SDS011;12240;51.142;22.486;2023-02-02T06:48:48;22.20;;;7.63;;
24030;SDS011;12240;51.142;22.486;2023-02-02T06:51:17;18.13;;;6.35;;
24030;SDS011;12240;51.142;22.486;2023-02-02T06:53:46;25.08;;;7.50;;
24030;SDS011;12240;51.142;22.486;2023-02-02T06:56:17;17.70;;;5.80;;
24030;SDS011;12240;51.142;22.486;2023-02-02T06:58:45;16.35;;;6.78;;
24030;SDS011;12240;51.142;22.486;2023-02-02T07:01:14;21.13;;;6.45;;
24030;SDS011;12240;51.142;22.486;2023-02-02T07:03:42;22.58;;;6.55;;
24030;SDS011;12240;51.142;22.486;2023-02-02T07:06:15;16.30;;;4.85;;
24030;SDS011;12240;51.142;22.486;2023-02-02T07:08:46;21.63;;;6.68;;
24030;SDS011;12240;51.142;22.486;2023-02-02T07:11:32;19.92;;;5.88;;
24030;SDS011;12240;51.142;22.486;2023-02-02T07:14:07;17.38;;;5.43;;
24030;SDS011;12240;51.142;22.486;2023-02-02T07:16:36;16.45;;;5.57;;
24030;SDS011;12240;51.142;22.486;2023-02-02T07:19:04;13.85;;;4.75;;
24030;SDS011;12240;51.142;22.486;2023-02-02T07:21:32;16.35;;;5.07;;
24030;SDS011;12240;51.142;22.486;2023-02-02T07:24:03;15.07;;;3.88;;
24030;SDS011;12240;51.142;22.486;2023-02-02T07:26:33;20.98;;;5.15;;
24030;SDS011;12240;51.142;22.486;2023-02-02T07:29:02;15.77;;;4.63;;
24030;SDS011;12240;51.142;22.486;2023-02-02T07:31:31;22.52;;;5.13;;
24030;SDS011;12240;51.142;22.486;2023-02-02T07:34:02;12.45;;;4.25;;
24030;SDS011;12240;51.142;22.486;2023-02-02T07:36:30;19.45;;;4.20;;
24030;SDS011;12240;51.142;22.486;2023-02-02T07:38:58;10.88;;;3.70;;
24030;SDS011;12240;51.142;22.486;2023-02-02T07:41:30;17.60;;;3.78;;
24030;SDS011;12240;51.142;22.486;2023-02-02T07:44:02;16.23;;;3.67;;
24030;SDS011;12240;51.142;22.486;2023-02-02T07:46:31;10.93;;;3.97;;
24030;SDS011;12240;51.142;22.486;2023-02-02T07:48:59;14.18;;;4.05;;
24030;SDS011;12240;51.142;22.486;2023-02-02T07:51:27;11.70;;;3.65;;
24030;SDS011;12240;51.142;22.486;2023-02-02T07:53:55;16.45;;;4.43;;
24030;SDS011;12240;51.142;22.486;2023-02-02T07:56:25;19.02;;;4.10;;
24030;SDS011;12240;51.142;22.486;2023-02-02T07:58:54;21.10;;;4.43;;
24030;SDS011;12240;51.142;22.486;2023-02-02T08:01:24;8.10;;;2.38;;
24030;SDS011;12240;51.142;22.486;2023-02-02T08:03:54;12.52;;;3.85;;
24030;SDS011;12240;51.142;22.486;2023-02-02T08:06:27;8.25;;;2.35;;
24030;SDS011;12240;51.142;22.486;2023-02-02T08:09:02;10.65;;;3.25;;
24030;SDS011;12240;51.142;22.486;2023-02-02T08:11:34;12.40;;;3.65;;
24030;SDS011;12240;51.142;22.486;2023-02-02T08:14:04;16.77;;;3.20;;
24030;SDS011;12240;51.142;22.486;2023-02-02T08:16:33;15.00;;;3.65;;
24030;SDS011;12240;51.142;22.486;2023-02-02T08:19:02;11.40;;;3.95;;
24030;SDS011;12240;51.142;22.486;2023-02-02T08:21:33;14.55;;;3.85;;
24030;SDS011;12240;51.142;22.486;2023-02-02T08:24:04;13.75;;;3.58;;
24030;SDS011;12240;51.142;22.486;2023-02-02T08:26:32;12.90;;;3.42;;
24030;SDS011;12240;51.142;22.486;2023-02-02T08:29:05;13.05;;;3.95;;
24030;SDS011;12240;51.142;22.486;2023-02-02T08:31:36;9.93;;;2.97;;
24030;SDS011;12240;51.142;22.486;2023-02-02T08:34:10;16.45;;;3.97;;
24030;SDS011;12240;51.142;22.486;2023-02-02T08:36:40;12.32;;;4.20;;
24030;SDS011;12240;51.142;22.486;2023-02-02T08:39:11;10.80;;;3.50;;
24030;SDS011;12240;51.142;22.486;2023-02-02T08:41:40;11.60;;;4.38;;
24030;SDS011;12240;51.142;22.486;2023-02-02T08:44:10;11.27;;;3.55;;
24030;SDS011;12240;51.142;22.486;2023-02-02T08:46:41;13.70;;;4.50;;
24030;SDS011;12240;51.142;22.486;2023-02-02T08:49:10;13.63;;;3.38;;
24030;SDS011;12240;51.142;22.486;2023-02-02T08:51:40;15.20;;;4.72;;
24030;SDS011;12240;51.142;22.486;2023-02-02T08:54:09;9.88;;;3.65;;
24030;SDS011;12240;51.142;22.486;2023-02-02T08:56:37;12.05;;;4.20;;
24030;SDS011;12240;51.142;22.486;2023-02-02T08:59:05;15.98;;;4.15;;
24030;SDS011;12240;51.142;22.486;2023-02-02T09:01:34;10.75;;;3.63;;
24030;SDS011;12240;51.142;22.486;2023-02-02T09:04:06;10.48;;;3.38;;
24030;SDS011;12240;51.142;22.486;2023-02-02T09:06:40;12.02;;;4.18;;
24030;SDS011;12240;51.142;22.486;2023-02-02T09:09:10;10.48;;;3.83;;
24030;SDS011;12240;51.142;22.486;2023-02-02T09:11:41;10.48;;;4.80;;
24030;SDS011;12240;51.142;22.486;2023-02-02T09:14:09;13.65;;;4.22;;
24030;SDS011;12240;51.142;22.486;2023-02-02T09:16:40;18.42;;;6.50;;
24030;SDS011;12240;51.142;22.486;2023-02-02T09:19:09;22.52;;;8.32;;
24030;SDS011;12240;51.142;22.486;2023-02-02T09:21:38;14.32;;;5.47;;
24030;SDS011;12240;51.142;22.486;2023-02-02T09:24:07;17.95;;;7.10;;
24030;SDS011;12240;51.142;22.486;2023-02-02T09:26:38;12.30;;;4.72;;
24030;SDS011;12240;51.142;22.486;2023-02-02T09:29:09;16.63;;;5.93;;
24030;SDS011;12240;51.142;22.486;2023-02-02T09:31:39;13.57;;;5.63;;
24030;SDS011;12240;51.142;22.486;2023-02-02T09:34:09;10.73;;;3.83;;
24030;SDS011;12240;51.142;22.486;2023-02-02T09:36:40;10.38;;;4.85;;
24030;SDS011;12240;51.142;22.486;2023-02-02T09:39:10;7.18;;;3.28;;
24030;SDS011;12240;51.142;22.486;2023-02-02T09:51:04;13.60;;;3.80;;
24030;SDS011;12240;51.142;22.486;2023-02-02T09:53:41;9.60;;;3.67;;
24030;SDS011;12240;51.142;22.486;2023-02-02T09:56:33;10.75;;;3.95;;
24030;SDS011;12240;51.142;22.486;2023-02-02T09:59:19;10.38;;;3.38;;
24030;SDS011;12240;51.142;22.486;2023-02-02T10:01:53;11.38;;;5.18;;
24030;SDS011;12240;51.142;22.486;2023-02-02T10:04:32;8.55;;;3.72;;
24030;SDS011;12240;51.142;22.486;2023-02-02T10:07:11;8.27;;;3.72;;
24030;SDS011;12240;51.142;22.486;2023-02-02T10:09:50;9.95;;;4.18;;
24030;SDS011;12240;51.142;22.486;2023-02-02T10:12:38;8.52;;;3.85;;
24030;SDS011;12240;51.142;22.486;2023-02-02T10:21:49;9.85;;;3.65;;
24030;SDS011;12240;51.142;22.486;2023-02-02T10:24:25;10.38;;;3.53;;
24030;SDS011;12240;51.142;22.486;2023-02-02T10:27:15;14.25;;;4.15;;
24030;SDS011;12240;51.142;22.486;2023-02-02T10:29:59;10.05;;;4.93;;
24030;SDS011;12240;51.142;22.486;2023-02-02T10:38:16;7.57;;;3.67;;
24030;SDS011;12240;51.142;22.486;2023-02-02T10:46:59;11.45;;;4.68;;
24030;SDS011;12240;51.142;22.486;2023-02-02T10:49:34;10.63;;;4.28;;
24030;SDS011;12240;51.142;22.486;2023-02-02T10:52:18;9.68;;;4.25;;
24030;SDS011;12240;51.142;22.486;2023-02-02T11:00:31;10.02;;;4.00;;
24030;SDS011;12240;51.142;22.486;2023-02-02T11:03:18;9.80;;;4.30;;
24030;SDS011;12240;51.142;22.486;2023-02-02T11:06:06;8.38;;;4.32;;
24030;SDS011;12240;51.142;22.486;2023-02-02T11:08:53;14.20;;;6.05;;
24030;SDS011;12240;51.142;22.486;2023-02-02T11:11:31;11.75;;;4.47;;
24030;SDS011;12240;51.142;22.486;2023-02-02T11:16:45;11.35;;;4.78;;
24030;SDS011;12240;51.142;22.486;2023-02-02T11:19:34;13.65;;;4.95;;
24030;SDS011;12240;51.142;22.486;2023-02-02T11:22:03;10.77;;;4.68;;
24030;SDS011;12240;51.142;22.486;2023-02-02T11:30:10;10.38;;;4.45;;
24030;SDS011;12240;51.142;22.486;2023-02-02T11:32:54;17.42;;;6.15;;
24030;SDS011;12240;51.142;22.486;2023-02-02T11:35:23;11.45;;;4.20;;
24030;SDS011;12240;51.142;22.486;2023-02-02T11:37:58;11.10;;;4.18;;
24030;SDS011;12240;51.142;22.486;2023-02-02T11:40:41;15.18;;;6.07;;
24030;SDS011;12240;51.142;22.486;2023-02-02T11:43:32;11.32;;;4.15;;
24030;SDS011;12240;51.142;22.486;2023-02-02T11:46:30;10.07;;;3.92;;
24030;SDS011;12240;51.142;22.486;2023-02-02T11:49:02;9.65;;;4.40;;
24030;SDS011;12240;51.142;22.486;2023-02-02T11:51:36;11.45;;;4.47;;
24030;SDS011;12240;51.142;22.486;2023-02-02T11:56:52;16.02;;;6.10;;
24030;SDS011;12240;51.142;22.486;2023-02-02T12:07:46;14.23;;;5.18;;
24030;SDS011;12240;51.142;22.486;2023-02-02T12:10:17;12.50;;;4.00;;
24030;SDS011;12240;51.142;22.486;2023-02-02T12:19:36;10.27;;;3.70;;
24030;SDS011;12240;51.142;22.486;2023-02-02T12:28:35;11.25;;;4.53;;
24030;SDS011;12240;51.142;22.486;2023-02-02T12:34:40;11.00;;;4.18;;
24030;SDS011;12240;51.142;22.486;2023-02-02T13:09:51;29.30;;;10.18;;
24030;SDS011;12240;51.142;22.486;2023-02-02T13:12:56;19.00;;;8.75;;
24030;SDS011;12240;51.142;22.486;2023-02-02T13:15:32;16.50;;;6.18;;
24030;SDS011;12240;51.142;22.486;2023-02-02T13:18:09;27.90;;;9.90;;
24030;SDS011;12240;51.142;22.486;2023-02-02T13:21:21;28.60;;;10.27;;
24030;SDS011;12240;51.142;22.486;2023-02-02T13:23:47;18.52;;;6.90;;
24030;SDS011;12240;51.142;22.486;2023-02-02T13:26:18;13.63;;;5.97;;
24030;SDS011;12240;51.142;22.486;2023-02-02T13:34:18;14.68;;;5.75;;
24030;SDS011;12240;51.142;22.486;2023-02-02T13:40:19;16.40;;;5.78;;
24030;SDS011;12240;51.142;22.486;2023-02-02T14:00:48;26.83;;;9.57;;
24030;SDS011;12240;51.142;22.486;2023-02-02T14:11:30;20.13;;;7.15;;
24030;SDS011;12240;51.142;22.486;2023-02-02T14:14:18;17.10;;;6.25;;
24030;SDS011;12240;51.142;22.486;2023-02-02T14:16:58;20.88;;;7.85;;
24030;SDS011;12240;51.142;22.486;2023-02-02T14:19:46;18.83;;;7.82;;
24030;SDS011;12240;51.142;22.486;2023-02-02T14:28:10;22.13;;;8.93;;
24030;SDS011;12240;51.142;22.486;2023-02-02T14:37:11;28.55;;;11.55;;
24030;SDS011;12240;51.142;22.486;2023-02-02T14:45:45;26.90;;;12.03;;
24030;SDS011;12240;51.142;22.486;2023-02-02T14:48:18;23.50;;;9.98;;
24030;SDS011;12240;51.142;22.486;2023-02-02T14:56:04;26.38;;;10.98;;
24030;SDS011;12240;51.142;22.486;2023-02-02T14:58:44;30.15;;;12.50;;
24030;SDS011;12240;51.142;22.486;2023-02-02T15:01:23;27.58;;;11.30;;
24030;SDS011;12240;51.142;22.486;2023-02-02T15:06:46;26.38;;;11.48;;
24030;SDS011;12240;51.142;22.486;2023-02-02T15:14:34;21.38;;;9.38;;
24030;SDS011;12240;51.142;22.486;2023-02-02T15:20:34;44.28;;;17.02;;
24030;SDS011;12240;51.142;22.486;2023-02-02T15:23:22;26.65;;;10.38;;
24030;SDS011;12240;51.142;22.486;2023-02-02T15:28:56;39.97;;;14.60;;
24030;SDS011;12240;51.142;22.486;2023-02-02T15:31:39;30.52;;;12.57;;
24030;SDS011;12240;51.142;22.486;2023-02-02T15:36:47;34.58;;;13.57;;
24030;SDS011;12240;51.142;22.486;2023-02-02T15:41:57;32.30;;;11.30;;
24030;SDS011;12240;51.142;22.486;2023-02-02T15:44:52;37.78;;;14.63;;
24030;SDS011;12240;51.142;22.486;2023-02-02T15:47:23;25.55;;;11.07;;
24030;SDS011;12240;51.142;22.486;2023-02-02T15:50:03;32.22;;;12.63;;
24030;SDS011;12240;51.142;22.486;2023-02-02T15:52:47;38.60;;;14.27;;
24030;SDS011;12240;51.142;22.486;2023-02-02T15:55:19;38.25;;;14.88;;
24030;SDS011;12240;51.142;22.486;2023-02-02T15:57:58;35.10;;;13.75;;
24030;SDS011;12240;51.142;22.486;2023-02-02T16:00:29;46.92;;;17.30;;
24030;SDS011;12240;51.142;22.486;2023-02-02T16:05:41;44.38;;;16.25;;
24030;SDS011;12240;51.142;22.486;2023-02-02T16:08:23;40.25;;;15.25;;
24030;SDS011;12240;51.142;22.486;2023-02-02T16:11:04;31.42;;;12.02;;
24030;SDS011;12240;51.142;22.486;2023-02-02T16:13:43;34.35;;;12.13;;
24030;SDS011;12240;51.142;22.486;2023-02-02T16:16:35;27.75;;;9.52;;
24030;SDS011;12240;51.142;22.486;2023-02-02T16:24:29;21.75;;;7.78;;
24030;SDS011;12240;51.142;22.486;2023-02-02T16:27:03;31.40;;;10.18;;
24030;SDS011;12240;51.142;22.486;2023-02-02T16:29:37;27.10;;;9.07;;
24030;SDS011;12240;51.142;22.486;2023-02-02T16:35:01;23.95;;;8.93;;
24030;SDS011;12240;51.142;22.486;2023-02-02T16:37:33;26.85;;;9.05;;
24030;SDS011;12240;51.142;22.486;2023-02-02T16:40:17;28.23;;;8.50;;
24030;SDS011;12240;51.142;22.486;2023-02-02T16:43:04;24.80;;;8.83;;
24030;SDS011;12240;51.142;22.486;2023-02-02T16:51:07;29.88;;;9.55;;
24030;SDS011;12240;51.142;22.486;2023-02-02T16:53:50;30.92;;;9.50;;
24030;SDS011;12240;51.142;22.486;2023-02-02T16:56:49;29.67;;;8.18;;
24030;SDS011;12240;51.142;22.486;2023-02-02T16:59:22;26.83;;;9.25;;
24030;SDS011;12240;51.142;22.486;2023-02-02T17:01:57;35.03;;;11.13;;
24030;SDS011;12240;51.142;22.486;2023-02-02T17:04:31;37.10;;;12.05;;
24030;SDS011;12240;51.142;22.486;2023-02-02T17:07:11;30.35;;;10.73;;
24030;SDS011;12240;51.142;22.486;2023-02-02T17:09:43;42.58;;;15.02;;
24030;SDS011;12240;51.142;22.486;2023-02-02T17:15:00;38.50;;;12.35;;
24030;SDS011;12240;51.142;22.486;2023-02-02T17:17:51;41.38;;;13.68;;
24030;SDS011;12240;51.142;22.486;2023-02-02T17:20:21;28.60;;;11.50;;
24030;SDS011;12240;51.142;22.486;2023-02-02T17:22:51;36.05;;;13.77;;
24030;SDS011;12240;51.142;22.486;2023-02-02T17:25:35;37.10;;;14.38;;
24030;SDS011;12240;51.142;22.486;2023-02-02T17:28:10;39.28;;;14.00;;
24030;SDS011;12240;51.142;22.486;2023-02-02T17:30:41;41.78;;;14.75;;
24030;SDS011;12240;51.142;22.486;2023-02-02T17:33:13;35.85;;;14.13;;
24030;SDS011;12240;51.142;22.486;2023-02-02T17:35:44;40.35;;;15.25;;
24030;SDS011;12240;51.142;22.486;2023-02-02T17:38:21;33.67;;;11.52;;
24030;SDS011;12240;51.142;22.486;2023-02-02T17:40:51;37.35;;;13.23;;
24030;SDS011;12240;51.142;22.486;2023-02-02T17:43:21;30.60;;;11.77;;
24030;SDS011;12240;51.142;22.486;2023-02-02T17:45:49;29.88;;;10.60;;
24030;SDS011;12240;51.142;22.486;2023-02-02T17:48:18;28.70;;;10.18;;
24030;SDS011;12240;51.142;22.486;2023-02-02T17:50:47;33.38;;;11.18;;
24030;SDS011;12240;51.142;22.486;2023-02-02T17:53:19;31.83;;;10.00;;
24030;SDS011;12240;51.142;22.486;2023-02-02T17:55:48;31.00;;;10.90;;
24030;SDS011;12240;51.142;22.486;2023-02-02T17:58:18;23.83;;;10.55;;
24030;SDS011;12240;51.142;22.486;2023-02-02T18:00:48;30.85;;;11.45;;
24030;SDS011;12240;51.142;22.486;2023-02-02T18:03:24;27.20;;;10.98;;
24030;SDS011;12240;51.142;22.486;2023-02-02T18:06:00;29.02;;;10.70;;
24030;SDS011;12240;51.142;22.486;2023-02-02T18:08:32;26.02;;;9.85;;
24030;SDS011;12240;51.142;22.486;2023-02-02T18:11:00;25.58;;;9.35;;
24030;SDS011;12240;51.142;22.486;2023-02-02T18:13:28;30.45;;;9.07;;
24030;SDS011;12240;51.142;22.486;2023-02-02T18:15:57;30.60;;;11.23;;
24030;SDS011;12240;51.142;22.486;2023-02-02T18:18:26;23.33;;;8.70;;
24030;SDS011;12240;51.142;22.486;2023-02-02T18:20:56;26.13;;;9.63;;
24030;SDS011;12240;51.142;22.486;2023-02-02T18:23:25;22.88;;;8.75;;
24030;SDS011;12240;51.142;22.486;2023-02-02T18:25:53;23.35;;;7.93;;
24030;SDS011;12240;51.142;22.486;2023-02-02T18:28:24;28.90;;;10.25;;
24030;SDS011;12240;51.142;22.486;2023-02-02T18:30:53;30.48;;;10.52;;
24030;SDS011;12240;51.142;22.486;2023-02-02T18:33:22;24.10;;;9.25;;
24030;SDS011;12240;51.142;22.486;2023-02-02T18:35:50;30.60;;;9.85;;
24030;SDS011;12240;51.142;22.486;2023-02-02T18:38:19;23.00;;;8.43;;
24030;SDS011;12240;51.142;22.486;2023-02-02T18:40:55;26.45;;;9.52;;
24030;SDS011;12240;51.142;22.486;2023-02-02T18:43:24;27.08;;;9.65;;
24030;SDS011;12240;51.142;22.486;2023-02-02T18:45:56;32.00;;;11.57;;
24030;SDS011;12240;51.142;22.486;2023-02-02T18:48:33;30.47;;;10.83;;
24030;SDS011;12240;51.142;22.486;2023-02-02T18:51:03;26.80;;;10.23;;